Time;durP1;ratioP1;P1;durP2;ratioP2;P2;SDS_P1;SDS_P2;PMS_P1;PMS_P2;Temp;Humidity;BMP_temperature;BMP_pressure;BME280_temperature;BME280_humidity;BME280_pressure;Samples;Min_cycle;Max_cycle;Signal;HPM_P1;HPM_P2
2023/04/08 00:00:30;;;;;;;100.87;20.30;;;5.30;99.90;;;;;;5041207;28;20283;-83
2023/04/08 00:02:57;;;;;;;62.00;17.40;;;5.30;99.90;;;;;;5042936;28;20225;-83
2023/04/08 00:05:25;;;;;;;87.83;19.83;;;4.80;99.90;;;;;;5039450;28;20197;-83
2023/04/08 00:07:52;;;;;;;72.83;18.40;;;4.30;99.90;;;;;;5044709;28;20292;-82
2023/04/08 00:10:19;;;;;;;54.33;17.17;;;5.30;99.90;;;;;;5049119;28;20189;-83
2023/04/08 00:12:47;;;;;;;94.23;16.90;;;5.00;99.90;;;;;;5041671;28;20231;-83
2023/04/08 00:15:14;;;;;;;59.70;16.77;;;5.10;99.90;;;;;;5041625;28;20564;-83
2023/04/08 00:17:41;;;;;;;36.87;15.43;;;4.90;99.90;;;;;;5044597;28;20226;-84
2023/04/08 00:20:08;;;;;;;45.50;15.57;;;5.00;99.90;;;;;;5045415;28;20663;-84
2023/04/08 00:22:35;;;;;;;35.67;14.20;;;4.90;99.90;;;;;;5025719;28;20217;-83
2023/04/08 00:25:05;;;;;;;38.33;14.70;;;4.40;99.90;;;;;;5045107;28;20585;-81
2023/04/08 00:27:32;;;;;;;34.87;15.67;;;4.80;99.90;;;;;;5044680;28;20209;-83
2023/04/08 00:30:00;;;;;;;33.27;14.77;;;4.50;99.90;;;;;;5027278;28;20205;-83
2023/04/08 00:32:28;;;;;;;33.80;15.70;;;4.60;99.90;;;;;;5044120;28;20318;-82
2023/04/08 00:34:55;;;;;;;39.77;16.23;;;4.50;99.90;;;;;;5043859;28;20201;-85
2023/04/08 00:37:23;;;;;;;36.00;15.93;;;4.50;99.90;;;;;;5043550;28;20292;-83
2023/04/08 00:39:52;;;;;;;36.33;15.80;;;4.00;99.90;;;;;;5045445;28;20268;-83
2023/04/08 00:42:20;;;;;;;34.47;14.53;;;4.50;99.90;;;;;;5043749;28;20212;-83
2023/04/08 00:44:47;;;;;;;34.87;14.90;;;4.50;99.90;;;;;;5043769;28;20215;-83
2023/04/08 00:47:15;;;;;;;36.87;15.07;;;4.40;99.90;;;;;;5047290;28;20208;-83
2023/04/08 00:49:43;;;;;;;44.43;16.30;;;5.10;99.90;;;;;;5041440;28;20208;-84
2023/04/08 00:52:10;;;;;;;28.67;14.80;;;3.90;99.90;;;;;;5023859;28;20289;-82
2023/04/08 00:54:37;;;;;;;34.67;16.07;;;4.50;99.90;;;;;;5042582;28;20284;-82
2023/04/08 00:57:05;;;;;;;38.43;15.73;;;3.90;99.90;;;;;;5026178;28;20208;-83
2023/04/08 00:59:32;;;;;;;39.30;17.27;;;4.30;99.90;;;;;;5022620;28;20259;-83
2023/04/08 01:02:40;;;;;;;40.40;18.33;;;4.40;99.90;;;;;;5032170;28;20218;-84
2023/04/08 01:05:34;;;;;;;35.37;17.23;;;4.20;99.90;;;;;;5026016;28;20702;-83
2023/04/08 01:08:05;;;;;;;40.60;17.80;;;4.20;99.90;;;;;;5038876;28;20201;-83
2023/04/08 01:10:33;;;;;;;41.87;19.97;;;5.00;99.90;;;;;;5040517;28;20220;-83
2023/04/08 01:13:10;;;;;;;45.40;19.07;;;;;;;;;;5042678;28;20281;-85
2023/04/08 01:15:40;;;;;;;50.17;21.20;;;4.10;99.90;;;;;;5024756;28;20207;-82
2023/04/08 01:18:11;;;;;;;55.77;22.33;;;4.50;99.90;;;;;;5041562;28;20282;-83
2023/04/08 01:20:40;;;;;;;48.17;21.20;;;4.10;99.90;;;;;;5029028;28;20609;-82
2023/04/08 01:23:24;;;;;;;41.03;20.27;;;4.00;99.90;;;;;;5041787;28;20736;-82
2023/04/08 01:25:52;;;;;;;44.07;20.27;;;4.00;99.90;;;;;;5040094;28;20235;-83
2023/04/08 01:28:22;;;;;;;56.67;23.10;;;4.00;99.90;;;;;;5029493;28;20773;-82
2023/04/08 01:30:50;;;;;;;48.87;22.93;;;4.00;99.90;;;;;;5046036;28;20232;-82
2023/04/08 01:33:18;;;;;;;50.23;23.00;;;4.00;99.90;;;;;;5040173;28;20238;-82
2023/04/08 01:35:45;;;;;;;48.80;22.37;;;3.90;99.90;;;;;;5043935;28;20782;-83
2023/04/08 01:38:16;;;;;;;50.37;22.37;;;3.90;99.90;;;;;;5043105;28;20292;-82
2023/04/08 01:40:45;;;;;;;41.20;20.80;;;4.90;99.90;;;;;;5022168;28;20236;-81
2023/04/08 01:43:14;;;;;;;49.70;21.87;;;3.90;99.90;;;;;;5043576;28;20304;-82
2023/04/08 01:45:44;;;;;;;53.40;22.80;;;3.90;99.90;;;;;;5045989;28;20681;-82
2023/04/08 01:48:13;;;;;;;60.90;25.47;;;3.80;99.90;;;;;;5039188;28;20759;-84
2023/04/08 01:50:44;;;;;;;49.77;22.07;;;3.80;99.90;;;;;;5042109;28;20288;-82
2023/04/08 01:53:11;;;;;;;58.43;24.77;;;3.80;99.90;;;;;;5041619;28;20209;-82
2023/04/08 01:55:40;;;;;;;52.47;22.97;;;4.00;99.90;;;;;;5039752;28;20566;-83
2023/04/08 01:58:10;;;;;;;51.93;24.30;;;3.90;99.90;;;;;;5040105;28;20210;-83
2023/04/08 02:00:39;;;;;;;57.43;25.33;;;4.40;99.90;;;;;;5041089;28;20241;-82
2023/04/08 02:03:07;;;;;;;63.13;26.60;;;3.70;99.90;;;;;;5021580;28;20224;-84
2023/04/08 02:05:34;;;;;;;66.30;27.30;;;3.70;99.90;;;;;;5049544;28;20208;-83
2023/04/08 02:08:01;;;;;;;65.50;25.40;;;3.80;99.90;;;;;;5027295;28;20698;-83
2023/04/08 02:10:29;;;;;;;54.33;25.17;;;3.70;99.90;;;;;;5039101;28;20256;-81
2023/04/08 02:12:57;;;;;;;59.60;26.60;;;3.60;99.90;;;;;;5034292;28;20726;-83
2023/04/08 02:15:27;;;;;;;56.10;25.90;;;3.40;99.90;;;;;;5046866;28;20329;-81
2023/04/08 02:17:59;;;;;;;66.70;29.47;;;3.60;99.90;;;;;;5052830;28;20210;-81
2023/04/08 02:20:36;;;;;;;65.97;29.43;;;3.60;99.90;;;;;;5061095;28;20250;-82
2023/04/08 02:23:18;;;;;;;67.23;27.60;;;2.60;99.90;;;;;;5045859;28;20236;-82
2023/04/08 02:25:46;;;;;;;57.87;27.57;;;3.60;99.90;;;;;;5023643;28;20280;-82
2023/04/08 02:28:18;;;;;;;60.60;27.20;;;3.60;99.90;;;;;;5042952;28;20245;-82
2023/04/08 02:30:49;;;;;;;64.27;26.90;;;3.50;99.90;;;;;;5025364;28;20226;-82
2023/04/08 02:33:19;;;;;;;61.67;28.20;;;3.50;99.90;;;;;;5045933;28;20222;-84
2023/04/08 02:35:49;;;;;;;66.30;27.63;;;3.50;99.90;;;;;;5022970;28;20832;-82
2023/04/08 02:38:16;;;;;;;57.53;26.37;;;3.50;99.90;;;;;;5020805;28;20217;-83
2023/04/08 02:40:43;;;;;;;62.93;26.70;;;3.50;99.90;;;;;;5041442;28;20265;-81
2023/04/08 02:43:09;;;;;;;70.73;28.57;;;3.40;99.90;;;;;;5040362;28;20249;-82
2023/04/08 02:45:43;;;;;;;60.90;28.87;;;3.40;99.90;;;;;;5040103;28;20212;-83
2023/04/08 02:48:10;;;;;;;62.23;27.27;;;3.50;99.90;;;;;;5038593;28;20261;-83
2023/04/08 02:50:38;;;;;;;57.77;27.73;;;3.40;99.90;;;;;;5022877;28;20295;-82
2023/04/08 02:53:04;;;;;;;62.40;27.87;;;3.30;99.90;;;;;;5023857;28;20237;-84
2023/04/08 02:55:31;;;;;;;56.90;27.70;;;3.40;99.90;;;;;;5040925;28;20301;-81
2023/04/08 02:57:58;;;;;;;64.63;27.80;;;3.40;99.90;;;;;;5040821;28;20233;-82
2023/04/08 03:00:25;;;;;;;64.50;27.63;;;3.40;99.90;;;;;;5041603;28;20325;-82
2023/04/08 03:02:51;;;;;;;57.63;26.57;;;3.30;99.90;;;;;;5043733;28;20245;-82
2023/04/08 03:05:19;;;;;;;56.87;26.20;;;3.30;99.90;;;;;;5047296;28;20205;-83
2023/04/08 03:07:46;;;;;;;54.93;25.30;;;3.30;99.90;;;;;;5046074;28;20258;-82
2023/04/08 03:10:12;;;;;;;52.00;24.37;;;3.30;99.90;;;;;;5046897;28;20301;-84
2023/04/08 03:12:39;;;;;;;53.57;25.40;;;3.10;99.90;;;;;;5027140;28;20313;-82
2023/04/08 03:15:07;;;;;;;62.70;27.23;;;3.20;99.90;;;;;;5033756;28;20207;-82
2023/04/08 03:17:34;;;;;;;56.53;26.80;;;3.20;99.90;;;;;;5046652;28;20257;-83
2023/04/08 03:20:03;;;;;;;62.33;26.47;;;3.10;99.90;;;;;;5044619;28;20241;-85
2023/04/08 03:22:31;;;;;;;50.77;24.17;;;3.30;99.90;;;;;;5025828;28;20208;-82
2023/04/08 03:24:58;;;;;;;58.53;26.70;;;3.30;99.90;;;;;;5027405;28;20239;-82
2023/04/08 03:27:25;;;;;;;58.90;26.07;;;3.20;99.90;;;;;;5043876;28;20212;-83
2023/04/08 03:29:52;;;;;;;51.27;23.37;;;3.00;99.90;;;;;;5046839;28;20289;-81
2023/04/08 03:32:19;;;;;;;51.97;23.67;;;2.30;99.90;;;;;;5046341;28;20209;-83
2023/04/08 03:34:48;;;;;;;54.10;24.20;;;2.90;99.90;;;;;;5045834;28;20210;-82
2023/04/08 03:37:15;;;;;;;54.37;24.50;;;2.80;99.90;;;;;;5044962;28;20198;-80
2023/04/08 03:39:42;;;;;;;61.03;26.03;;;2.90;99.90;;;;;;5042977;28;20218;-81
2023/04/08 03:42:09;;;;;;;51.33;24.33;;;2.90;99.90;;;;;;5042383;28;20648;-81
2023/04/08 03:44:36;;;;;;;60.80;25.03;;;2.90;99.90;;;;;;5047528;28;20616;-82
2023/04/08 03:47:05;;;;;;;48.80;22.67;;;;;;;;;;5043326;28;20666;-81
2023/04/08 03:49:32;;;;;;;48.40;22.60;;;2.70;99.90;;;;;;5025325;28;20684;-82
2023/04/08 03:51:58;;;;;;;51.63;23.43;;;2.70;99.90;;;;;;5041292;28;20206;-80
2023/04/08 03:54:25;;;;;;;44.77;21.97;;;2.70;99.90;;;;;;5048337;28;20698;-81
2023/04/08 03:56:53;;;;;;;51.20;22.20;;;2.60;99.90;;;;;;5030516;28;20237;-80
2023/04/08 03:59:20;;;;;;;52.50;22.50;;;2.60;99.90;;;;;;5025466;28;20251;-80
2023/04/08 04:01:47;;;;;;;48.50;22.00;;;2.60;99.90;;;;;;5042137;28;20263;-81
2023/04/08 04:04:15;;;;;;;49.73;22.27;;;2.60;99.90;;;;;;5044334;28;20219;-80
2023/04/08 04:06:42;;;;;;;45.67;20.40;;;2.60;99.90;;;;;;5048059;28;20261;-78
2023/04/08 04:09:10;;;;;;;44.30;22.00;;;2.50;99.90;;;;;;5048476;28;20380;-81
2023/04/08 04:11:37;;;;;;;48.10;22.17;;;2.50;99.90;;;;;;5041704;28;20263;-79
2023/04/08 04:14:03;;;;;;;50.23;23.00;;;2.50;99.90;;;;;;5022825;28;20198;-81
2023/04/08 04:16:31;;;;;;;50.47;22.37;;;;;;;;;;5048117;28;20307;-80
2023/04/08 04:18:59;;;;;;;51.30;22.67;;;2.40;99.90;;;;;;5043033;28;20236;-81
2023/04/08 04:21:26;;;;;;;50.07;22.43;;;2.40;99.90;;;;;;5044031;28;20356;-80
2023/04/08 04:23:53;;;;;;;47.83;22.33;;;2.40;99.90;;;;;;5044951;28;20224;-80
2023/04/08 04:26:19;;;;;;;47.57;21.47;;;2.40;99.90;;;;;;5047262;28;20312;-81
2023/04/08 04:28:47;;;;;;;47.80;21.90;;;2.30;99.90;;;;;;5042459;28;20314;-82
2023/04/08 04:31:25;;;;;;;52.57;23.37;;;2.30;99.90;;;;;;5025880;28;20198;-80
2023/04/08 04:33:52;;;;;;;46.13;21.73;;;2.30;99.90;;;;;;5031826;28;20618;-80
2023/04/08 04:36:19;;;;;;;48.77;22.63;;;2.20;99.90;;;;;;5051474;28;20198;-82
2023/04/08 04:38:46;;;;;;;49.33;23.47;;;2.20;99.90;;;;;;5041493;28;20221;-81
2023/04/08 04:41:16;;;;;;;56.10;23.03;;;2.20;99.90;;;;;;5040428;28;20237;-80
2023/04/08 04:43:43;;;;;;;63.50;25.67;;;2.20;99.90;;;;;;5040211;28;20288;-80
2023/04/08 04:46:10;;;;;;;51.27;23.63;;;2.20;99.90;;;;;;5042668;28;20670;-80
2023/04/08 04:48:37;;;;;;;58.57;25.40;;;2.20;99.90;;;;;;5039771;28;20236;-80
2023/04/08 04:51:04;;;;;;;59.60;24.57;;;2.20;99.90;;;;;;5043443;28;20242;-81
2023/04/08 04:53:30;;;;;;;65.00;25.67;;;2.10;99.90;;;;;;5041800;28;20201;-81
2023/04/08 04:56:00;;;;;;;57.47;23.60;;;2.10;99.90;;;;;;5041737;28;20210;-82
2023/04/08 04:58:27;;;;;;;56.10;25.17;;;2.10;99.90;;;;;;5049165;28;20284;-81
2023/04/08 05:00:54;;;;;;;54.17;25.57;;;2.10;99.90;;;;;;5045214;28;20299;-80
2023/04/08 05:03:21;;;;;;;57.83;25.63;;;2.10;99.90;;;;;;5032922;28;20222;-80
2023/04/08 05:05:52;;;;;;;57.77;24.50;;;2.10;99.90;;;;;;5050260;28;20200;-80
2023/04/08 05:08:20;;;;;;;52.70;23.30;;;2.10;99.90;;;;;;5042837;28;20782;-80
2023/04/08 05:10:49;;;;;;;64.37;27.40;;;2.10;99.90;;;;;;5029206;28;20204;-81
2023/04/08 05:13:17;;;;;;;62.97;26.17;;;2.10;99.90;;;;;;5043838;28;20202;-80
2023/04/08 05:15:44;;;;;;;60.63;25.33;;;2.10;99.90;;;;;;5022622;28;20202;-79
2023/04/08 05:18:12;;;;;;;69.30;27.50;;;2.10;99.90;;;;;;5041118;28;20277;-81
2023/04/08 05:20:39;;;;;;;70.53;27.67;;;2.00;99.90;;;;;;5043690;28;20630;-80
2023/04/08 05:23:06;;;;;;;64.27;27.57;;;2.10;99.90;;;;;;5043898;28;20201;-81
2023/04/08 05:25:33;;;;;;;70.70;28.70;;;2.20;99.90;;;;;;5041736;28;20256;-80
2023/04/08 05:28:00;;;;;;;59.33;25.93;;;2.20;99.90;;;;;;5044766;28;20609;-81
2023/04/08 05:30:27;;;;;;;71.50;29.63;;;2.20;99.90;;;;;;5042100;28;20287;-81
2023/04/08 05:32:54;;;;;;;64.83;26.93;;;2.20;99.90;;;;;;5045481;28;20229;-80
2023/04/08 05:35:23;;;;;;;61.73;28.00;;;2.20;99.90;;;;;;5040960;28;20201;-82
2023/04/08 05:37:50;;;;;;;68.30;28.63;;;2.20;99.90;;;;;;5029340;28;20209;-81
2023/04/08 05:40:17;;;;;;;63.60;27.23;;;2.30;99.90;;;;;;5043293;28;20224;-80
2023/04/08 05:42:44;;;;;;;75.47;27.87;;;2.30;99.90;;;;;;5043524;28;20207;-81
2023/04/08 05:45:10;;;;;;;67.30;28.50;;;2.30;99.90;;;;;;5041466;28;20222;-82
2023/04/08 05:47:37;;;;;;;56.10;25.63;;;2.30;99.90;;;;;;5043805;28;20302;-83
2023/04/08 05:50:05;;;;;;;75.80;30.50;;;2.40;99.90;;;;;;5046222;28;20203;-82
2023/04/08 05:52:32;;;;;;;66.50;29.23;;;2.40;99.90;;;;;;5043075;28;20219;-82
2023/04/08 05:55:00;;;;;;;69.10;29.97;;;2.40;99.90;;;;;;5051492;28;20675;-83
2023/04/08 05:57:26;;;;;;;68.43;28.70;;;2.40;99.90;;;;;;5040697;28;20268;-82
2023/04/08 05:59:53;;;;;;;68.77;31.03;;;2.50;99.90;;;;;;5044985;28;20679;-83
2023/04/08 06:02:20;;;;;;;79.57;31.20;;;2.60;99.90;;;;;;5043667;28;20700;-82
2023/04/08 06:04:47;;;;;;;71.40;29.67;;;2.60;99.90;;;;;;5047794;28;20194;-83
2023/04/08 06:07:14;;;;;;;77.07;31.03;;;2.70;99.90;;;;;;5041341;28;20201;-81
2023/04/08 06:09:41;;;;;;;72.00;31.00;;;2.70;99.90;;;;;;5047981;28;20296;-81
2023/04/08 06:12:10;;;;;;;72.10;31.43;;;2.80;99.90;;;;;;5029080;28;20199;-83
2023/04/08 06:14:37;;;;;;;78.03;32.13;;;2.80;99.90;;;;;;5027489;28;21067;-82
2023/04/08 06:17:05;;;;;;;75.00;31.23;;;2.90;99.90;;;;;;5038745;28;20694;-84
2023/04/08 06:19:32;;;;;;;74.87;32.13;;;2.90;99.90;;;;;;5042673;28;20251;-83
2023/04/08 06:22:01;;;;;;;77.73;32.23;;;3.00;99.90;;;;;;5040786;28;20253;-87
2023/04/08 06:24:28;;;;;;;77.70;32.53;;;3.00;99.90;;;;;;5044412;28;20209;-85
2023/04/08 06:26:55;;;;;;;78.53;32.97;;;3.10;99.90;;;;;;5049570;28;20285;-85
2023/04/08 06:29:22;;;;;;;77.90;31.50;;;3.20;99.90;;;;;;5042665;28;20198;-83
2023/04/08 06:31:49;;;;;;;75.03;33.20;;;3.20;99.90;;;;;;5029264;28;20209;-85
2023/04/08 06:34:17;;;;;;;84.27;35.03;;;3.30;99.90;;;;;;5049071;28;20257;-83
2023/04/08 06:36:43;;;;;;;82.93;34.57;;;3.50;99.90;;;;;;5030369;28;20212;-84
2023/04/08 06:39:10;;;;;;;97.47;37.67;;;3.60;99.90;;;;;;5026403;28;20204;-85
2023/04/08 06:41:38;;;;;;;80.57;36.03;;;3.70;99.90;;;;;;5042994;28;20662;-84
2023/04/08 06:44:05;;;;;;;86.20;36.23;;;3.90;99.90;;;;;;5024730;28;20224;-86
2023/04/08 06:46:32;;;;;;;74.47;34.93;;;4.00;99.90;;;;;;5024980;28;20267;-85
2023/04/08 06:48:59;;;;;;;75.77;34.00;;;4.20;99.90;;;;;;5023073;28;20252;-85
2023/04/08 06:51:26;;;;;;;69.30;32.90;;;4.30;99.90;;;;;;5041991;28;20226;-84
2023/04/08 06:53:54;;;;;;;62.17;29.80;;;4.40;99.90;;;;;;5040366;28;20197;-83
2023/04/08 06:56:21;;;;;;;58.73;29.93;;;4.60;99.90;;;;;;5042425;28;20734;-84
2023/04/08 06:58:48;;;;;;;51.33;27.63;;;4.60;99.90;;;;;;5016172;28;20239;-79
2023/04/08 07:01:16;;;;;;;53.27;28.07;;;4.70;99.90;;;;;;5041391;28;20320;-84
2023/04/08 07:03:43;;;;;;;51.47;27.00;;;4.70;99.90;;;;;;5029841;28;20198;-84
2023/04/08 07:06:10;;;;;;;48.20;26.87;;;4.70;99.90;;;;;;5043605;28;20270;-84
2023/04/08 07:08:37;;;;;;;49.57;26.20;;;4.80;99.90;;;;;;5057868;28;20598;-85
2023/04/08 07:11:05;;;;;;;53.23;26.93;;;4.80;99.90;;;;;;5047273;28;20215;-86
2023/04/08 07:13:34;;;;;;;58.30;28.67;;;4.90;99.90;;;;;;5030686;28;20744;-88
2023/04/08 07:16:01;;;;;;;57.30;28.80;;;5.10;99.90;;;;;;5051192;28;20200;-86
2023/04/08 07:18:28;;;;;;;56.43;28.67;;;5.20;99.90;;;;;;5040270;28;20260;-86
2023/04/08 07:20:56;;;;;;;54.73;28.93;;;5.40;99.90;;;;;;5042860;28;20253;-87
2023/04/08 07:23:23;;;;;;;49.43;27.93;;;5.60;99.90;;;;;;5045784;28;20279;-88
2023/04/08 07:25:51;;;;;;;44.07;24.77;;;5.70;99.90;;;;;;5067234;28;20190;-88
2023/04/08 07:28:18;;;;;;;40.67;24.13;;;5.90;99.90;;;;;;5038304;28;20753;-88
2023/04/08 07:30:45;;;;;;;40.63;24.53;;;5.90;99.90;;;;;;5051456;28;20213;-88
2023/04/08 07:33:15;;;;;;;37.87;23.77;;;6.00;99.90;;;;;;5029660;28;20269;-87
2023/04/08 07:35:42;;;;;;;43.87;26.67;;;6.20;99.90;;;;;;5028675;28;20260;-86
2023/04/08 07:38:10;;;;;;;38.07;24.20;;;6.50;99.90;;;;;;5029025;28;20204;-86
2023/04/08 07:40:37;;;;;;;30.30;19.10;;;7.10;99.90;;;;;;5026849;28;20274;-86
2023/04/08 07:43:04;;;;;;;20.20;16.07;;;7.50;99.90;;;;;;5016925;28;20247;-84
2023/04/08 07:45:32;;;;;;;19.60;14.63;;;8.30;99.90;;;;;;5023201;28;20214;-87
2023/04/08 07:47:59;;;;;;;19.40;13.87;;;8.90;99.90;;;;;;5032468;28;20311;-88
2023/04/08 07:50:30;;;;;;;16.80;12.40;;;9.50;99.90;;;;;;5028357;28;20216;-85
2023/04/08 07:52:58;;;;;;;16.60;11.23;;;9.70;99.90;;;;;;5034226;28;20244;-86
2023/04/08 07:55:25;;;;;;;17.17;11.97;;;10.10;99.90;;;;;;5048814;28;20198;-86
2023/04/08 07:57:52;;;;;;;15.97;11.07;;;10.40;99.90;;;;;;5025294;28;20210;-87
2023/04/08 08:00:20;;;;;;;15.23;10.67;;;10.60;99.90;;;;;;5029691;28;20252;-83
2023/04/08 08:02:47;;;;;;;16.93;11.20;;;10.90;99.90;;;;;;5032598;28;20237;-84
2023/04/08 08:05:14;;;;;;;16.60;11.73;;;11.20;99.90;;;;;;5037388;28;20442;-83
2023/04/08 08:07:42;;;;;;;14.13;10.93;;;11.50;99.90;;;;;;5024940;28;20292;-85
2023/04/08 08:10:09;;;;;;;15.27;11.00;;;11.50;99.90;;;;;;5048921;28;20197;-86
2023/04/08 08:12:36;;;;;;;12.90;10.60;;;11.50;99.90;;;;;;5044376;28;20851;-85
2023/04/08 08:15:04;;;;;;;12.87;10.47;;;11.90;99.90;;;;;;5040864;28;20619;-85
2023/04/08 08:17:32;;;;;;;12.97;10.30;;;12.30;99.90;;;;;;5025798;28;20668;-86
2023/04/08 08:20:00;;;;;;;11.03;9.63;;;12.60;99.90;;;;;;5042723;28;20225;-88
2023/04/08 08:22:27;;;;;;;12.00;10.20;;;12.90;99.90;;;;;;5041271;28;20263;-86
2023/04/08 08:24:57;;;;;;;13.00;10.73;;;13.10;99.90;;;;;;5042668;28;20650;-86
2023/04/08 08:27:25;;;;;;;12.13;10.13;;;13.20;99.90;;;;;;5045096;28;20237;-87
2023/04/08 08:29:52;;;;;;;14.98;10.45;;;13.30;99.90;;;;;;5026619;28;20229;-85
2023/04/08 08:32:18;;;;;;;11.27;9.80;;;13.20;99.90;;;;;;5025246;28;20277;-87
2023/04/08 08:34:45;;;;;;;12.75;10.77;;;13.50;99.90;;;;;;5044793;28;20200;-85
2023/04/08 08:37:12;;;;;;;14.40;10.82;;;13.70;99.90;;;;;;5041051;28;20244;-87
2023/04/08 08:39:39;;;;;;;13.32;10.35;;;13.70;99.90;;;;;;5040720;28;20877;-86
2023/04/08 08:42:06;;;;;;;14.23;10.75;;;13.80;99.90;;;;;;5041313;28;20240;-87
2023/04/08 08:44:33;;;;;;;14.32;11.25;;;14.00;99.90;;;;;;5024288;28;20264;-87
2023/04/08 08:47:00;;;;;;;15.70;11.35;;;14.30;99.90;;;;;;5045643;28;21055;-87
2023/04/08 08:49:27;;;;;;;13.18;10.73;;;14.40;99.90;;;;;;5043110;28;20748;-86
2023/04/08 08:51:54;;;;;;;14.52;11.55;;;14.50;99.90;;;;;;5043622;28;20232;-83
2023/04/08 08:54:22;;;;;;;13.93;11.80;;;14.60;99.90;;;;;;5043785;28;20248;-84
2023/04/08 08:56:48;;;;;;;14.18;11.98;;;14.70;99.90;;;;;;5041170;28;20226;-86
2023/04/08 08:59:15;;;;;;;16.90;12.02;;;14.90;99.90;;;;;;5040947;28;20651;-85
2023/04/08 09:01:42;;;;;;;14.20;11.65;;;14.90;99.90;;;;;;5034139;28;20249;-84
2023/04/08 09:04:14;;;;;;;17.92;14.07;;;14.70;99.90;;;;;;5026912;28;20248;-86
2023/04/08 09:06:42;;;;;;;17.25;13.23;;;14.70;99.90;;;;;;5028518;28;20206;-85
2023/04/08 09:09:09;;;;;;;15.88;13.07;;;14.60;99.90;;;;;;5044586;28;20233;-84
2023/04/08 09:11:38;;;;;;;16.20;12.88;;;14.80;99.90;;;;;;5023899;28;20213;-86
2023/04/08 09:14:16;;;;;;;13.48;11.60;;;15.10;99.90;;;;;;5022499;28;20616;-84
2023/04/08 09:16:43;;;;;;;16.35;11.23;;;15.30;99.90;;;;;;5041570;28;20672;-85
2023/04/08 09:19:11;;;;;;;15.35;12.40;;;15.40;99.90;;;;;;5022280;28;20620;-85
2023/04/08 09:21:40;;;;;;;14.60;12.20;;;15.10;99.90;;;;;;5043439;28;20229;-85
2023/04/08 09:24:08;;;;;;;16.33;12.45;;;15.00;99.90;;;;;;5041594;28;20209;-86
2023/04/08 09:26:36;;;;;;;15.85;12.82;;;15.00;99.90;;;;;;5042435;28;20284;-86
2023/04/08 09:29:08;;;;;;;14.35;12.18;;;15.00;99.90;;;;;;5029008;28;20212;-84
2023/04/08 09:31:56;;;;;;;14.38;10.45;;;15.10;99.90;;;;;;5029449;28;20235;-85
2023/04/08 09:34:24;;;;;;;14.40;11.35;;;15.10;99.90;;;;;;5046678;28;20225;-85
2023/04/08 09:36:52;;;;;;;14.43;11.60;;;14.90;99.90;;;;;;5040950;28;20756;-85
2023/04/08 09:39:19;;;;;;;19.23;12.30;;;14.70;99.90;;;;;;5042748;28;20214;-84
2023/04/08 09:41:50;;;;;;;13.87;11.17;;;15.00;99.90;;;;;;5021647;28;20670;-84
2023/04/08 09:44:23;;;;;;;14.10;10.53;;;15.00;99.90;;;;;;5023821;28;20205;-85
2023/04/08 09:46:50;;;;;;;13.98;11.15;;;15.20;99.90;;;;;;5033642;28;20402;-85
2023/04/08 09:49:42;;;;;;;15.15;11.52;;;15.20;99.90;;;;;;5021927;28;20226;-85
2023/04/08 09:52:44;;;;;;;13.63;10.73;;;15.30;99.90;;;;;;5022479;28;20662;-84
2023/04/08 09:55:13;;;;;;;15.48;11.77;;;15.30;99.90;;;;;;5022125;28;20738;-84
2023/04/08 09:57:54;;;;;;;13.73;10.65;;;15.40;99.90;;;;;;5039302;28;20279;-84
2023/04/08 10:00:27;;;;;;;15.07;11.00;;;15.20;99.90;;;;;;5039378;28;20209;-85
2023/04/08 10:02:57;;;;;;;15.15;10.57;;;15.00;99.90;;;;;;5027766;28;20424;-84
2023/04/08 10:05:24;;;;;;;11.48;10.02;;;14.70;99.90;;;;;;5041484;28;20565;-84
2023/04/08 10:07:52;;;;;;;12.63;9.90;;;14.70;99.90;;;;;;5041440;28;20255;-83
2023/04/08 10:10:19;;;;;;;13.47;10.03;;;14.50;99.90;;;;;;5042156;28;20481;-84
2023/04/08 10:12:48;;;;;;;14.77;9.87;;;14.50;99.90;;;;;;5042004;28;20219;-83
2023/04/08 10:15:25;;;;;;;15.43;9.93;;;14.60;99.90;;;;;;5032436;28;20209;-84
2023/04/08 10:18:17;;;;;;;13.95;9.98;;;14.70;99.90;;;;;;5040128;28;20243;-83
2023/04/08 10:20:46;;;;;;;15.77;10.27;;;14.60;99.90;;;;;;5043425;28;20237;-83
2023/04/08 10:23:15;;;;;;;13.20;10.77;;;14.60;99.90;;;;;;5021819;28;20255;-84
2023/04/08 10:25:46;;;;;;;13.27;10.52;;;14.70;99.90;;;;;;5021409;28;20209;-83
2023/04/08 10:28:14;;;;;;;13.95;9.68;;;14.60;99.90;;;;;;5040239;28;20666;-82
2023/04/08 10:30:43;;;;;;;13.60;9.93;;;14.50;99.90;;;;;;5041020;28;20241;-83
2023/04/08 10:33:24;;;;;;;13.38;9.95;;;14.50;99.90;;;;;;5023254;28;20226;-84
2023/04/08 10:36:10;;;;;;;10.70;9.43;;;14.50;99.90;;;;;;5026919;28;20283;-84
2023/04/08 10:38:41;;;;;;;13.17;9.67;;;14.50;99.90;;;;;;5030283;28;20660;-84
2023/04/08 10:41:10;;;;;;;10.80;8.80;;;14.50;99.90;;;;;;5020397;28;20245;-83
2023/04/08 10:43:37;;;;;;;11.40;9.05;;;14.50;99.90;;;;;;5030912;28;20225;-82
2023/04/08 10:46:04;;;;;;;11.57;8.48;;;14.40;99.90;;;;;;5021792;28;20693;-82
2023/04/08 10:48:31;;;;;;;9.23;7.90;;;14.30;99.90;;;;;;5041018;28;20221;-84
2023/04/08 10:51:02;;;;;;;10.82;7.75;;;14.40;99.90;;;;;;5020605;28;20237;-81
2023/04/08 10:53:35;;;;;;;10.75;8.02;;;14.50;99.90;;;;;;5029902;28;20208;-82
2023/04/08 10:56:12;;;;;;;9.97;8.13;;;14.60;99.90;;;;;;5031716;28;20306;-82
2023/04/08 10:58:50;;;;;;;11.55;8.65;;;14.90;99.90;;;;;;5039642;28;20213;-81
2023/04/08 11:01:18;;;;;;;11.13;8.75;;;14.90;99.90;;;;;;5038531;28;20578;-81
2023/04/08 11:03:45;;;;;;;9.50;7.93;;;15.00;99.90;;;;;;5039714;28;20240;-82
2023/04/08 11:06:13;;;;;;;12.07;9.23;;;15.10;99.90;;;;;;5047340;28;20197;-82
2023/04/08 11:08:40;;;;;;;11.63;8.95;;;15.20;99.90;;;;;;5037670;28;20698;-82
2023/04/08 11:11:10;;;;;;;13.15;8.95;;;15.30;99.90;;;;;;5041443;28;20259;-81
2023/04/08 11:13:43;;;;;;;11.68;8.70;;;15.40;99.90;;;;;;5029088;28;20217;-81
2023/04/08 11:16:21;;;;;;;9.57;8.25;;;15.40;99.90;;;;;;5039253;28;20209;-80
2023/04/08 11:18:50;;;;;;;11.65;9.05;;;15.30;99.90;;;;;;5038393;28;20233;-82
2023/04/08 11:21:17;;;;;;;13.18;9.65;;;15.20;99.90;;;;;;5041347;28;20213;-83
2023/04/08 11:23:44;;;;;;;11.68;8.57;;;15.20;99.90;;;;;;5043479;28;20232;-82
2023/04/08 11:26:12;;;;;;;9.98;7.97;;;15.20;99.90;;;;;;5043585;28;20736;-82
2023/04/08 11:28:39;;;;;;;9.98;8.13;;;15.20;99.90;;;;;;5042743;28;20296;-82
2023/04/08 11:31:07;;;;;;;11.38;9.15;;;15.20;99.90;;;;;;5034558;28;20731;-82
2023/04/08 11:33:35;;;;;;;11.40;9.43;;;15.10;99.90;;;;;;5034183;28;20279;-84
2023/04/08 11:36:03;;;;;;;14.63;10.27;;;15.20;99.90;;;;;;5042909;28;20658;-82
2023/04/08 11:38:30;;;;;;;12.80;10.05;;;15.20;99.90;;;;;;5045224;28;20339;-81
2023/04/08 11:40:58;;;;;;;12.82;9.90;;;15.10;99.90;;;;;;5041655;28;20205;-83
2023/04/08 11:43:26;;;;;;;14.52;10.63;;;14.90;99.90;;;;;;5043804;28;20778;-80
2023/04/08 11:45:53;;;;;;;14.32;10.40;;;14.80;99.90;;;;;;5041408;28;20228;-81
2023/04/08 11:48:20;;;;;;;15.77;10.88;;;14.80;99.90;;;;;;5041533;28;20225;-82
2023/04/08 11:50:47;;;;;;;15.32;10.45;;;14.70;99.90;;;;;;5041927;28;20209;-82
2023/04/08 11:53:18;;;;;;;13.88;11.38;;;14.70;99.90;;;;;;5044412;28;20216;-83
2023/04/08 11:55:46;;;;;;;14.70;11.35;;;14.60;99.90;;;;;;5044077;28;20577;-83
2023/04/08 11:58:13;;;;;;;14.73;11.73;;;14.60;99.90;;;;;;5041563;28;20214;-81
2023/04/08 12:00:40;;;;;;;15.82;12.00;;;14.50;99.90;;;;;;5041638;28;20658;-81
2023/04/08 12:03:07;;;;;;;23.02;12.63;;;14.50;99.90;;;;;;5042705;28;20239;-81
2023/04/08 12:05:34;;;;;;;17.08;12.88;;;14.40;99.90;;;;;;5028084;28;20566;-81
2023/04/08 12:08:02;;;;;;;17.63;13.45;;;14.50;99.90;;;;;;5043933;28;20680;-82
2023/04/08 12:10:29;;;;;;;18.35;13.80;;;14.50;99.90;;;;;;5044535;28;20209;-82
2023/04/08 12:12:56;;;;;;;15.82;12.38;;;14.70;99.90;;;;;;5040414;28;20209;-82
2023/04/08 12:15:23;;;;;;;17.80;12.88;;;14.80;99.90;;;;;;5026373;28;20216;-82
2023/04/08 12:17:49;;;;;;;16.85;13.23;;;14.90;99.90;;;;;;5041152;28;20214;-82
2023/04/08 12:20:19;;;;;;;22.05;14.18;;;14.80;99.90;;;;;;5027086;28;20229;-82
2023/04/08 12:22:46;;;;;;;19.30;14.50;;;14.60;99.90;;;;;;5043046;28;20231;-82
2023/04/08 12:25:13;;;;;;;18.60;15.13;;;14.30;99.90;;;;;;5045752;28;20267;-81
2023/04/08 12:27:40;;;;;;;23.42;15.85;;;14.30;99.90;;;;;;5026562;28;20565;-81
2023/04/08 12:30:08;;;;;;;22.27;15.70;;;14.30;99.90;;;;;;5051587;28;20728;-82
2023/04/08 12:32:35;;;;;;;19.33;14.40;;;14.30;99.90;;;;;;5054272;28;20218;-83
2023/04/08 12:35:02;;;;;;;20.53;14.90;;;14.30;99.90;;;;;;5061170;28;20240;-81
2023/04/08 12:37:29;;;;;;;19.30;14.50;;;14.50;99.90;;;;;;5046800;28;20658;-81
2023/04/08 12:39:55;;;;;;;17.97;13.67;;;14.60;99.90;;;;;;5041368;28;20733;-81
2023/04/08 12:42:23;;;;;;;21.17;14.47;;;14.70;99.90;;;;;;5024965;28;20221;-81